createdAt,value
2018-09-26T00:00:33.545Z,52.69
2018-09-26T00:01:33.551Z,52.49
2018-09-26T00:02:33.514Z,52.39
2018-09-26T00:03:33.502Z,52.19
2018-09-26T00:04:33.491Z,52.17
2018-09-26T00:05:33.479Z,52.49
2018-09-26T00:06:33.510Z,52.49
2018-09-26T00:07:33.531Z,52.59
2018-09-26T00:08:33.448Z,51.69
2018-09-26T00:09:33.435Z,52.47
2018-09-26T00:10:33.440Z,52.59
2018-09-26T00:11:33.410Z,52.39
2018-09-26T00:12:33.405Z,52.39
2018-09-26T00:13:33.421Z,52.29
2018-09-26T00:14:33.417Z,52.49
2018-09-26T00:15:33.366Z,52.39
2018-09-26T00:16:33.358Z,52.29
2018-09-26T00:17:33.345Z,52.29
2018-09-26T00:18:33.359Z,52.39
2018-09-26T00:19:33.433Z,52.49
2018-09-26T00:20:33.323Z,52.39
2018-09-26T00:21:33.330Z,52.59
2018-09-26T00:22:33.290Z,52.19
2018-09-26T00:23:33.302Z,52.49
2018-09-26T00:24:33.267Z,52.59
2018-09-26T00:25:33.256Z,52.39
2018-09-26T00:26:33.245Z,52.49
2018-09-26T00:27:33.262Z,52.49
2018-09-26T00:28:33.284Z,52.49
2018-09-26T00:29:33.236Z,52.39
2018-09-26T00:30:33.204Z,52.39
2018-09-26T00:31:33.189Z,52.19
2018-09-26T00:32:33.257Z,52.59
2018-09-26T00:33:33.201Z,52.49
2018-09-26T00:34:33.168Z,51.79
2018-09-26T00:35:33.149Z,52.39
2018-09-26T00:36:33.149Z,52.39
2018-09-26T00:37:33.154Z,52.59
2018-09-26T00:38:33.113Z,52.49
2018-09-26T00:39:33.106Z,52.39
2018-09-26T00:40:33.089Z,52.59
2018-09-26T00:41:33.076Z,52.59
2018-09-26T00:42:33.091Z,52.39
2018-09-26T00:43:33.053Z,52.51
2018-09-26T00:44:33.044Z,52.49
2018-09-26T00:45:33.037Z,52.39
2018-09-26T00:46:33.026Z,52.49
2018-09-26T00:47:33.120Z,52.39
2018-09-26T00:48:32.998Z,52.49
2018-09-26T00:49:33.153Z,52.49
2018-09-26T00:50:32.995Z,52.49
2018-09-26T00:51:32.968Z,52.49
2018-09-26T00:52:32.982Z,52.51
2018-09-26T00:53:32.947Z,52.59
2018-09-26T00:54:32.950Z,52.59
2018-09-26T00:55:32.926Z,52.69
2018-09-26T00:56:32.941Z,52.69
2018-09-26T00:57:33.024Z,52.49
2018-09-26T00:58:32.889Z,52.69
2018-09-26T00:59:32.879Z,52.59
2018-09-26T01:00:32.886Z,52.39
2018-09-26T01:01:32.857Z,52.59
2018-09-26T01:02:32.871Z,52.69
2018-09-26T01:03:32.835Z,52.39
2018-09-26T01:04:32.822Z,52.62
2018-09-26T01:05:32.813Z,52.69
2018-09-26T01:06:32.801Z,52.59
2018-09-26T01:07:32.815Z,52.80
2018-09-26T01:08:32.778Z,52.69
2018-09-26T01:09:32.801Z,52.59
2018-09-26T01:10:32.755Z,52.80
2018-09-26T01:11:32.751Z,52.51
2018-09-26T01:12:32.751Z,52.59
2018-09-26T01:13:32.766Z,52.59
2018-09-26T01:14:32.725Z,52.59
2018-09-26T01:15:32.730Z,52.49
2018-09-26T01:16:32.689Z,52.72
2018-09-26T01:17:32.681Z,52.51
2018-09-26T01:18:32.690Z,52.49
2018-09-26T01:19:32.697Z,52.69
2018-09-26T01:20:32.654Z,52.59
2018-09-26T01:21:32.631Z,52.62
2018-09-26T01:22:32.626Z,52.69
2018-09-26T01:23:32.625Z,52.69
2018-09-26T01:24:32.626Z,52.69
2018-09-26T01:25:32.606Z,52.59
2018-09-26T01:26:32.608Z,52.69
2018-09-26T01:27:32.576Z,52.69
2018-09-26T01:28:32.555Z,52.69
2018-09-26T01:29:32.562Z,52.69
2018-09-26T01:30:32.556Z,52.69
2018-09-26T01:31:32.523Z,52.69
2018-09-26T01:32:32.518Z,52.59
2018-09-26T01:33:32.518Z,52.69
2018-09-26T01:34:32.508Z,52.69
2018-09-26T01:35:32.515Z,52.80
2018-09-26T01:36:32.557Z,52.59
2018-09-26T01:37:32.524Z,52.69
2018-09-26T01:38:32.446Z,52.59
2018-09-26T01:39:32.611Z,52.59
2018-09-26T01:40:32.422Z,52.80
2018-09-26T01:41:32.500Z,52.59
2018-09-26T01:42:32.436Z,52.49
2018-09-26T01:43:32.413Z,52.80
2018-09-26T01:44:32.412Z,52.59
2018-09-26T01:45:32.606Z,52.72
2018-09-26T01:46:32.450Z,52.72
2018-09-26T01:47:32.345Z,52.69
2018-09-26T01:48:32.334Z,52.80
2018-09-26T01:49:32.371Z,52.59
2018-09-26T01:50:32.311Z,52.49
2018-09-26T01:51:32.306Z,52.59
2018-09-26T01:52:32.288Z,52.72
2018-09-26T01:53:32.276Z,52.69
2018-09-26T01:54:32.296Z,52.69
2018-09-26T01:55:32.256Z,52.69
2018-09-26T01:56:32.607Z,52.39
2018-09-26T01:57:32.230Z,52.49
2018-09-26T01:58:32.221Z,52.51
2018-09-26T01:59:32.234Z,52.69
2018-09-26T02:00:32.202Z,52.69
2018-09-26T02:01:32.190Z,52.49
2018-09-26T02:02:32.187Z,52.49
2018-09-26T02:03:32.167Z,52.62
2018-09-26T02:04:32.185Z,52.69
2018-09-26T02:05:32.541Z,52.69
2018-09-26T02:06:32.131Z,52.49
2018-09-26T02:07:32.120Z,52.39
2018-09-26T02:08:32.108Z,52.69
2018-09-26T02:09:32.192Z,52.39
2018-09-26T02:10:32.086Z,53.12
2018-09-26T02:11:32.078Z,52.72
2018-09-26T02:12:32.100Z,52.51
2018-09-26T02:13:32.098Z,52.42
2018-09-26T02:14:32.065Z,52.62
2018-09-26T02:15:32.054Z,52.62
2018-09-26T02:16:32.023Z,52.72
2018-09-26T02:17:32.032Z,52.82
2018-09-26T02:18:31.997Z,52.69
2018-09-26T02:19:32.104Z,52.62
2018-09-26T02:20:32.034Z,52.49
2018-09-26T02:21:31.964Z,52.59
2018-09-26T02:22:32.404Z,52.42
2018-09-26T02:23:32.012Z,52.69
2018-09-26T02:24:32.610Z,52.39
2018-09-26T02:25:31.973Z,52.69
2018-09-26T02:26:31.908Z,52.49
2018-09-26T02:27:31.901Z,52.69
2018-09-26T02:28:31.919Z,52.62
2018-09-26T02:29:31.875Z,52.42
2018-09-26T02:30:31.871Z,52.59
2018-09-26T02:31:31.853Z,52.72
2018-09-26T02:32:31.857Z,52.72
2018-09-26T02:33:31.832Z,53.22
2018-09-26T02:34:31.842Z,52.51
2018-09-26T02:35:31.825Z,52.59
2018-09-26T02:36:31.891Z,52.51
2018-09-26T02:37:31.785Z,53.30
2018-09-26T02:38:31.776Z,52.62
2018-09-26T02:39:31.785Z,52.59
2018-09-26T02:40:31.751Z,52.62
2018-09-26T02:41:31.748Z,52.59
2018-09-26T02:42:31.739Z,53.32
2018-09-26T02:43:31.718Z,52.62
2018-09-26T02:44:31.729Z,52.62
2018-09-26T02:45:31.705Z,53.02
2018-09-26T02:46:31.684Z,52.51
2018-09-26T02:47:31.676Z,52.51
2018-09-26T02:48:31.692Z,52.62
2018-09-26T02:49:31.676Z,52.42
2018-09-26T02:50:31.642Z,52.42
2018-09-26T02:51:32.029Z,52.51
2018-09-26T02:52:31.618Z,53.32
2018-09-26T02:53:31.636Z,52.72
2018-09-26T02:54:31.600Z,52.82
2018-09-26T02:55:31.590Z,52.32
2018-09-26T02:56:31.572Z,52.42
2018-09-26T02:57:31.563Z,52.92
2018-09-26T02:58:31.579Z,52.82
2018-09-26T02:59:31.543Z,52.92
2018-09-26T03:00:31.533Z,52.82
2018-09-26T03:01:31.518Z,53.32
2018-09-26T03:02:31.504Z,52.82
2018-09-26T03:03:31.518Z,53.02
2018-09-26T03:04:31.483Z,52.42
2018-09-26T03:05:31.476Z,52.59
2018-09-26T03:06:32.099Z,53.02
2018-09-26T03:07:31.456Z,53.32
2018-09-26T03:08:32.613Z,52.51
2018-09-26T03:09:31.429Z,52.82
2018-09-26T03:10:31.421Z,52.42
2018-09-26T03:11:31.429Z,53.22
2018-09-26T03:12:32.095Z,52.72
2018-09-26T03:13:31.385Z,53.02
2018-09-26T03:14:31.377Z,52.42
2018-09-26T03:15:31.365Z,52.39
2018-09-26T03:16:31.373Z,52.92
2018-09-26T03:17:31.376Z,52.51
2018-09-26T03:18:31.325Z,52.92
2018-09-26T03:19:31.317Z,52.82
2018-09-26T03:20:31.371Z,52.82
2018-09-26T03:21:31.294Z,53.02
2018-09-26T03:22:31.285Z,52.89
2018-09-26T03:23:31.987Z,53.22
2018-09-26T03:24:31.578Z,52.92
2018-09-26T03:25:31.252Z,52.82
2018-09-26T03:26:31.261Z,52.82
2018-09-26T03:27:31.230Z,52.92
2018-09-26T03:28:31.231Z,52.72
2018-09-26T03:29:31.203Z,52.92
2018-09-26T03:30:31.196Z,52.92
2018-09-26T03:31:31.213Z,53.12
2018-09-26T03:32:31.172Z,52.82
2018-09-26T03:33:31.183Z,53.02
2018-09-26T03:34:31.149Z,53.12
2018-09-26T03:35:31.143Z,52.92
2018-09-26T03:36:31.152Z,53.12
2018-09-26T03:37:31.114Z,53.12
2018-09-26T03:38:31.127Z,53.12
2018-09-26T03:39:31.093Z,53.22
2018-09-26T03:40:31.152Z,53.12
2018-09-26T03:41:31.076Z,53.12
2018-09-26T03:42:31.056Z,53.22
2018-09-26T03:43:31.046Z,53.02
2018-09-26T03:44:31.046Z,53.02
2018-09-26T03:45:31.090Z,53.12
2018-09-26T03:46:31.014Z,52.72
2018-09-26T03:47:31.008Z,53.02
2018-09-26T03:48:31.024Z,52.89
2018-09-26T03:49:30.985Z,53.02
2018-09-26T03:50:30.975Z,53.02
2018-09-26T03:51:31.009Z,53.12
2018-09-26T03:52:30.966Z,53.02
2018-09-26T03:53:30.971Z,53.02
2018-09-26T03:54:31.058Z,53.12
2018-09-26T03:55:30.926Z,53.22
2018-09-26T03:56:30.903Z,53.02
2018-09-26T03:57:30.921Z,53.02
2018-09-26T03:58:30.906Z,53.22
2018-09-26T03:59:30.868Z,53.12
2018-09-26T04:00:30.861Z,53.02
2018-09-26T04:01:30.893Z,53.02
2018-09-26T04:02:30.891Z,53.02
2018-09-26T04:03:30.834Z,53.22
2018-09-26T04:04:30.812Z,52.92
2018-09-26T04:05:30.856Z,53.02
2018-09-26T04:06:30.859Z,53.02
2018-09-26T04:07:30.788Z,53.02
2018-09-26T04:08:30.792Z,53.02
2018-09-26T04:09:30.759Z,53.22
2018-09-26T04:10:30.801Z,53.02
2018-09-26T04:11:30.736Z,52.82
2018-09-26T04:12:30.770Z,53.02
2018-09-26T04:13:30.810Z,53.02
2018-09-26T04:14:30.702Z,52.92
2018-09-26T04:15:30.696Z,53.22
2018-09-26T04:16:30.682Z,53.32
2018-09-26T04:17:30.682Z,53.02
2018-09-26T04:18:30.684Z,52.92
2018-09-26T04:19:30.671Z,53.02
2018-09-26T04:20:30.788Z,52.72
2018-09-26T04:21:30.624Z,53.02
2018-09-26T04:22:30.677Z,53.02
2018-09-26T04:23:30.611Z,52.82
2018-09-26T04:24:30.591Z,52.92
2018-09-26T04:25:30.580Z,53.12
2018-09-26T04:26:30.742Z,53.02
2018-09-26T04:27:30.796Z,52.82
2018-09-26T04:28:30.545Z,52.92
2018-09-26T04:29:30.538Z,53.02
2018-09-26T04:30:30.666Z,52.92
2018-09-26T04:31:30.511Z,53.02
2018-09-26T04:32:30.552Z,52.92
2018-09-26T04:33:30.546Z,53.02
2018-09-26T04:34:30.478Z,52.72
2018-09-26T04:35:30.468Z,53.02
2018-09-26T04:36:30.457Z,53.02
2018-09-26T04:37:30.480Z,53.02
2018-09-26T04:38:30.467Z,52.92
2018-09-26T04:39:30.427Z,52.92
2018-09-26T04:40:30.413Z,53.22
2018-09-26T04:41:30.403Z,52.92
2018-09-26T04:42:30.437Z,53.02
2018-09-26T04:43:30.459Z,53.22
2018-09-26T04:44:30.368Z,53.12
2018-09-26T04:45:30.370Z,53.02
2018-09-26T04:46:30.347Z,53.02
2018-09-26T04:47:30.368Z,52.72
2018-09-26T04:48:30.322Z,53.22
2018-09-26T04:49:30.313Z,53.02
2018-09-26T04:50:30.299Z,52.82
2018-09-26T04:51:30.293Z,53.02
2018-09-26T04:52:30.300Z,52.92
2018-09-26T04:53:30.295Z,52.92
2018-09-26T04:54:30.257Z,53.02
2018-09-26T04:55:30.245Z,53.02
2018-09-26T04:56:30.307Z,52.92
2018-09-26T04:57:30.730Z,53.12
2018-09-26T04:58:30.700Z,53.02
2018-09-26T04:59:30.200Z,53.02
2018-09-26T05:00:30.187Z,53.02
2018-09-26T05:01:30.213Z,52.92
2018-09-26T05:02:30.165Z,53.02
2018-09-26T05:03:30.189Z,52.92
2018-09-26T05:04:30.145Z,52.92
2018-09-26T05:05:30.135Z,53.02
2018-09-26T05:06:30.126Z,52.92
2018-09-26T05:07:30.114Z,53.52
2018-09-26T05:08:30.130Z,52.92
2018-09-26T05:09:30.134Z,53.02
2018-09-26T05:10:30.078Z,52.92
2018-09-26T05:11:30.087Z,52.94
2018-09-26T05:12:30.083Z,52.82
2018-09-26T05:13:30.047Z,53.05
2018-09-26T05:14:30.034Z,52.92
2018-09-26T05:15:30.068Z,52.92
2018-09-26T05:16:30.010Z,53.12
2018-09-26T05:17:30.006Z,53.02
2018-09-26T05:18:29.988Z,52.92
2018-09-26T05:19:29.977Z,52.92
2018-09-26T05:20:30.000Z,52.92
2018-09-26T05:21:29.957Z,53.02
2018-09-26T05:22:29.944Z,52.92
2018-09-26T05:23:29.938Z,52.92
2018-09-26T05:24:29.928Z,53.02
2018-09-26T05:25:30.133Z,53.02
2018-09-26T05:26:29.903Z,52.92
2018-09-26T05:27:29.889Z,53.02
2018-09-26T05:28:29.890Z,53.02
2018-09-26T05:29:29.878Z,53.02
2018-09-26T05:30:29.933Z,52.92
2018-09-26T05:31:29.874Z,52.92
2018-09-26T05:32:29.837Z,52.92
2018-09-26T05:33:29.819Z,52.92
2018-09-26T05:34:29.809Z,53.02
2018-09-26T05:35:29.803Z,52.92
2018-09-26T05:36:29.813Z,53.02
2018-09-26T05:37:29.780Z,52.92
2018-09-26T05:38:29.794Z,53.02
2018-09-26T05:39:29.780Z,53.12
2018-09-26T05:40:29.744Z,53.14
2018-09-26T05:41:29.732Z,53.02
2018-09-26T05:42:29.720Z,52.92
2018-09-26T05:43:29.736Z,53.02
2018-09-26T05:44:29.736Z,52.92
2018-09-26T05:45:29.947Z,53.02
2018-09-26T05:46:29.679Z,53.02
2018-09-26T05:47:29.694Z,53.02
2018-09-26T05:48:29.691Z,52.92
2018-09-26T05:49:29.647Z,52.92
2018-09-26T05:50:29.632Z,52.92
2018-09-26T05:51:29.626Z,52.92
2018-09-26T05:52:29.630Z,53.52
2018-09-26T05:53:29.756Z,52.92
2018-09-26T05:54:29.591Z,52.82
2018-09-26T05:55:29.907Z,53.02
2018-09-26T05:56:29.600Z,53.02
2018-09-26T05:57:29.555Z,52.82
2018-09-26T05:58:29.541Z,53.02
2018-09-26T05:59:29.574Z,53.02
2018-09-26T06:00:29.522Z,53.22
2018-09-26T06:01:29.566Z,53.32
2018-09-26T06:02:29.497Z,52.72
2018-09-26T06:03:29.520Z,52.82
2018-09-26T06:04:29.512Z,53.02
2018-09-26T06:05:29.586Z,53.32
2018-09-26T06:06:29.456Z,52.92
2018-09-26T06:07:29.442Z,53.02
2018-09-26T06:08:29.453Z,53.32
2018-09-26T06:09:29.549Z,53.12
2018-09-26T06:10:29.414Z,53.12
2018-09-26T06:11:29.445Z,53.02
2018-09-26T06:12:29.575Z,53.02
2018-09-26T06:13:29.399Z,53.20
2018-09-26T06:14:29.407Z,53.22
2018-09-26T06:15:30.416Z,52.92
2018-09-26T06:16:29.365Z,53.02
2018-09-26T06:17:29.336Z,53.22
2018-09-26T06:18:29.536Z,52.92
2018-09-26T06:19:29.307Z,53.02
2018-09-26T06:20:29.300Z,52.92
2018-09-26T06:21:29.285Z,53.52
2018-09-26T06:22:29.412Z,52.92
2018-09-26T06:23:29.296Z,53.02
2018-09-26T06:24:29.293Z,52.82
2018-09-26T06:25:29.241Z,52.92
2018-09-26T06:26:29.231Z,53.12
2018-09-26T06:27:29.228Z,53.02
2018-09-26T06:28:29.249Z,52.82
2018-09-26T06:29:29.200Z,52.92
2018-09-26T06:30:29.188Z,53.02
2018-09-26T06:31:29.176Z,52.82
2018-09-26T06:32:29.174Z,52.92
2018-09-26T06:33:29.195Z,52.92
2018-09-26T06:34:29.229Z,52.82
2018-09-26T06:35:29.129Z,52.92
2018-09-26T06:36:29.119Z,53.22
2018-09-26T06:37:29.109Z,53.02
2018-09-26T06:38:29.119Z,53.02
2018-09-26T06:39:29.109Z,53.12
2018-09-26T06:40:29.127Z,53.12
2018-09-26T06:41:29.095Z,53.22
2018-09-26T06:42:29.056Z,52.82
2018-09-26T06:43:29.041Z,53.32
2018-09-26T06:44:29.111Z,52.72
2018-09-26T06:45:29.019Z,52.42
2018-09-26T06:46:29.014Z,52.51
2018-09-26T06:47:29.058Z,52.62
2018-09-26T06:48:28.984Z,52.82
2018-09-26T06:49:29.009Z,52.32
2018-09-26T06:50:28.971Z,52.51
2018-09-26T06:51:28.951Z,51.81
2018-09-26T06:52:28.939Z,51.61
2018-09-26T06:53:28.931Z,51.79
2018-09-26T06:54:28.945Z,51.51
2018-09-26T06:55:28.911Z,51.81
2018-09-26T06:56:28.895Z,51.81
2018-09-26T06:57:28.920Z,51.69
2018-09-26T06:58:28.872Z,51.79
2018-09-26T06:59:28.993Z,51.69
2018-09-26T07:00:28.855Z,51.89
2018-09-26T07:01:28.935Z,51.89
2018-09-26T07:02:28.855Z,51.89
2018-09-26T07:03:28.818Z,52.09
2018-09-26T07:04:28.818Z,52.09
2018-09-26T07:05:28.803Z,51.87
2018-09-26T07:06:28.817Z,52.07
2018-09-26T07:07:28.775Z,52.17
2018-09-26T07:08:28.763Z,52.07
2018-09-26T07:09:28.831Z,51.87
2018-09-26T07:10:28.742Z,51.87
2018-09-26T07:11:28.760Z,51.97
2018-09-26T07:12:28.721Z,51.87
2018-09-26T07:13:28.710Z,51.87
2018-09-26T07:14:28.964Z,51.87
2018-09-26T07:15:28.684Z,52.07
2018-09-26T07:16:30.094Z,51.97
2018-09-26T07:17:28.660Z,51.94
2018-09-26T07:18:28.650Z,51.34
2018-09-26T07:19:28.719Z,51.34
2018-09-26T07:20:28.628Z,51.34
2018-09-26T07:21:28.655Z,50.94
2018-09-26T07:22:28.606Z,51.64
2018-09-26T07:23:28.593Z,51.14
2018-09-26T07:24:28.591Z,50.94
2018-09-26T07:25:28.606Z,50.74
2018-09-26T07:26:28.587Z,51.44
2018-09-26T07:27:28.550Z,50.94
2018-09-26T07:28:28.557Z,51.44
2018-09-26T07:29:28.550Z,51.04
2018-09-26T07:30:28.514Z,50.74
2018-09-26T07:31:28.887Z,50.74
2018-09-26T07:32:28.493Z,51.04
2018-09-26T07:33:28.482Z,51.12
2018-09-26T07:34:28.474Z,51.04
2018-09-26T07:35:28.459Z,51.12
2018-09-26T07:36:28.471Z,50.94
2018-09-26T07:37:28.457Z,51.44
2018-09-26T07:38:28.457Z,51.32
2018-09-26T07:39:28.444Z,51.44
2018-09-26T07:40:28.405Z,50.74
2018-09-26T07:41:28.394Z,51.12
2018-09-26T07:42:28.381Z,51.01
2018-09-26T07:43:29.615Z,50.92
2018-09-26T07:44:28.402Z,51.42
2018-09-26T07:45:28.451Z,51.01
2018-09-26T07:46:28.356Z,51.42
2018-09-26T07:47:28.329Z,51.32
2018-09-26T07:48:28.350Z,51.01
2018-09-26T07:49:28.303Z,51.01
2018-09-26T07:50:28.294Z,50.92
2018-09-26T07:51:28.283Z,51.51
2018-09-26T07:52:28.270Z,51.01
2018-09-26T07:53:28.364Z,51.01
2018-09-26T07:54:28.247Z,51.42
2018-09-26T07:55:28.239Z,51.01
2018-09-26T07:56:28.226Z,50.92
2018-09-26T07:57:28.213Z,50.92
2018-09-26T07:58:28.227Z,51.42
2018-09-26T07:59:28.200Z,50.92
2018-09-26T08:00:28.212Z,51.01
2018-09-26T08:01:28.170Z,51.21
2018-09-26T08:02:28.158Z,51.42
2018-09-26T08:03:28.150Z,51.32
2018-09-26T08:04:28.176Z,51.32
2018-09-26T08:05:28.300Z,51.12
2018-09-26T08:06:28.114Z,51.12
2018-09-26T08:07:28.102Z,51.01
2018-09-26T08:08:28.103Z,51.21
2018-09-26T08:09:28.103Z,51.12
2018-09-26T08:10:28.071Z,51.39
2018-09-26T08:11:28.214Z,51.32
2018-09-26T08:12:28.045Z,51.19
2018-09-26T08:13:28.036Z,51.19
2018-09-26T08:14:28.023Z,51.42
2018-09-26T08:15:28.056Z,51.19
2018-09-26T08:16:28.119Z,51.39
2018-09-26T08:17:27.998Z,51.39
2018-09-26T08:18:27.992Z,51.39
2018-09-26T08:19:27.970Z,51.19
2018-09-26T08:20:27.973Z,51.29
2018-09-26T08:21:28.353Z,51.19
2018-09-26T08:22:27.934Z,51.29
2018-09-26T08:23:27.930Z,51.39
2018-09-26T08:24:27.953Z,51.39
2018-09-26T08:25:27.905Z,51.39
2018-09-26T08:26:28.080Z,51.39
2018-09-26T08:27:27.903Z,51.49
2018-09-26T08:28:27.874Z,51.27
2018-09-26T08:29:27.860Z,51.29
2018-09-26T08:30:27.847Z,51.39
2018-09-26T08:31:27.837Z,51.39
2018-09-26T08:32:27.885Z,51.29
2018-09-26T08:33:27.838Z,51.59
2018-09-26T08:34:27.801Z,51.29
2018-09-26T08:35:27.791Z,51.59
2018-09-26T08:36:27.780Z,51.49
2018-09-26T08:37:27.794Z,51.39
2018-09-26T08:38:27.761Z,51.69
2018-09-26T08:39:27.746Z,51.29
2018-09-26T08:40:27.733Z,51.37
2018-09-26T08:41:27.733Z,51.29
2018-09-26T08:42:27.742Z,51.27
2018-09-26T08:43:27.701Z,51.37
2018-09-26T08:44:27.743Z,51.59
2018-09-26T08:45:27.679Z,51.29
2018-09-26T08:46:27.669Z,51.37
2018-09-26T08:47:27.812Z,51.46
2018-09-26T08:48:27.701Z,51.37
2018-09-26T08:49:27.711Z,51.27
2018-09-26T08:50:28.133Z,51.57
2018-09-26T08:51:27.690Z,51.27
2018-09-26T08:52:27.627Z,51.59
2018-09-26T08:53:27.932Z,51.67
2018-09-26T08:54:27.603Z,51.57
2018-09-26T08:55:27.566Z,51.49
2018-09-26T08:56:27.557Z,51.59
2018-09-26T08:57:27.545Z,51.29
2018-09-26T08:58:27.614Z,51.49
2018-09-26T08:59:27.522Z,51.59
2018-09-26T09:00:27.568Z,51.37
2018-09-26T09:01:27.503Z,51.29
2018-09-26T09:02:27.489Z,51.39
2018-09-26T09:03:27.484Z,51.27
2018-09-26T09:04:27.508Z,51.27
2018-09-26T09:05:27.478Z,51.27
2018-09-26T09:06:27.443Z,51.37
2018-09-26T09:07:27.455Z,51.29
2018-09-26T09:08:27.422Z,51.57
2018-09-26T09:09:27.420Z,51.59
2018-09-26T09:10:27.547Z,51.37
2018-09-26T09:11:27.461Z,51.37
2018-09-26T09:12:27.667Z,51.37
2018-09-26T09:13:27.435Z,51.37
2018-09-26T09:14:27.390Z,51.29
2018-09-26T09:15:27.367Z,51.57
2018-09-26T09:16:27.335Z,51.19
2018-09-26T09:17:27.322Z,51.37
2018-09-26T09:18:27.310Z,51.69
2018-09-26T09:19:27.329Z,51.27
2018-09-26T09:20:27.313Z,51.57
2018-09-26T09:21:27.275Z,51.59
2018-09-26T09:22:27.270Z,51.57
2018-09-26T09:23:27.254Z,51.57
2018-09-26T09:24:27.247Z,51.57
2018-09-26T09:25:27.257Z,51.49
2018-09-26T09:26:27.236Z,51.69
2018-09-26T09:27:27.266Z,51.27
2018-09-26T09:28:27.225Z,51.27
2018-09-26T09:29:27.213Z,51.46
2018-09-26T09:30:27.206Z,51.77
2018-09-26T09:31:27.179Z,51.67
2018-09-26T09:32:27.161Z,51.67
2018-09-26T09:33:27.199Z,51.67
2018-09-26T09:34:27.158Z,51.67
2018-09-26T09:35:27.137Z,51.27
2018-09-26T09:36:27.192Z,51.57
2018-09-26T09:37:27.100Z,51.67
2018-09-26T09:38:27.115Z,51.57
2018-09-26T09:39:27.076Z,51.46
2018-09-26T09:40:27.090Z,51.17
2018-09-26T09:41:27.125Z,51.57
2018-09-26T09:42:27.046Z,51.57
2018-09-26T09:43:27.060Z,50.96
2018-09-26T09:44:27.081Z,51.57
2018-09-26T09:45:27.014Z,51.67
2018-09-26T09:46:27.000Z,50.94
2018-09-26T09:47:26.987Z,51.04
2018-09-26T09:48:27.021Z,51.64
2018-09-26T09:49:27.009Z,50.94
2018-09-26T09:50:26.954Z,51.14
2018-09-26T09:51:26.968Z,51.25
2018-09-26T09:52:27.013Z,51.04
2018-09-26T09:53:26.948Z,51.44
2018-09-26T09:54:26.910Z,51.07
2018-09-26T09:55:26.926Z,51.07
2018-09-26T09:56:26.905Z,51.17
2018-09-26T09:57:26.876Z,51.07
2018-09-26T09:58:26.866Z,51.44
2018-09-26T09:59:26.856Z,51.44
2018-09-26T10:00:26.946Z,51.44
2018-09-26T10:01:26.855Z,51.14
2018-09-26T10:02:26.963Z,51.34
2018-09-26T10:03:26.823Z,51.07
2018-09-26T10:04:26.805Z,50.84
2018-09-26T10:05:26.819Z,51.04
2018-09-26T10:06:26.785Z,51.04
2018-09-26T10:07:26.794Z,51.04
2018-09-26T10:08:26.756Z,50.94
2018-09-26T10:09:26.785Z,50.94
2018-09-26T10:10:26.757Z,51.14
2018-09-26T10:11:26.721Z,51.25
2018-09-26T10:12:26.709Z,51.25
2018-09-26T10:13:26.700Z,50.84
2018-09-26T10:14:26.830Z,51.14
2018-09-26T10:15:26.703Z,50.84
2018-09-26T10:16:26.690Z,51.14
2018-09-26T10:17:26.709Z,51.04
2018-09-26T10:18:26.645Z,51.25
2018-09-26T10:19:26.636Z,51.04
2018-09-26T10:20:26.743Z,51.04
2018-09-26T10:21:26.641Z,51.25
2018-09-26T10:22:26.603Z,51.25
2018-09-26T10:23:26.759Z,51.14
2018-09-26T10:24:26.577Z,51.04
2018-09-26T10:25:26.565Z,51.04
2018-09-26T10:26:26.628Z,51.04
2018-09-26T10:27:26.619Z,51.14
2018-09-26T10:28:26.540Z,51.14
2018-09-26T10:29:26.557Z,50.84
2018-09-26T10:30:26.510Z,50.84
2018-09-26T10:31:26.732Z,50.84
2018-09-26T10:32:26.535Z,51.14
2018-09-26T10:33:26.476Z,51.14
2018-09-26T10:34:26.463Z,51.04
2018-09-26T10:35:26.452Z,50.84
2018-09-26T10:36:26.504Z,50.94
2018-09-26T10:37:26.484Z,51.14
2018-09-26T10:38:26.553Z,50.94
2018-09-26T10:39:26.419Z,51.14
2018-09-26T10:40:26.398Z,50.94
2018-09-26T10:41:26.471Z,51.04
2018-09-26T10:42:26.427Z,50.84
2018-09-26T10:43:26.391Z,51.25
2018-09-26T10:44:26.355Z,51.25
2018-09-26T10:45:26.343Z,51.25
2018-09-26T10:46:26.330Z,51.04
2018-09-26T10:47:26.499Z,51.25
2018-09-26T10:48:26.309Z,51.25
2018-09-26T10:49:26.320Z,51.25
2018-09-26T10:50:26.322Z,51.04
2018-09-26T10:51:26.275Z,51.34
2018-09-26T10:52:26.267Z,51.25
2018-09-26T10:53:26.301Z,51.34
2018-09-26T10:54:26.240Z,51.34
2018-09-26T10:55:26.229Z,51.04
2018-09-26T10:56:26.316Z,51.34
2018-09-26T10:57:26.221Z,51.04
2018-09-26T10:58:26.241Z,51.04
2018-09-26T10:59:26.186Z,51.34
2018-09-26T11:00:26.175Z,51.04
2018-09-26T11:01:26.205Z,51.34
2018-09-26T11:02:26.211Z,51.14
2018-09-26T11:03:26.170Z,51.34
2018-09-26T11:04:26.400Z,50.94
2018-09-26T11:05:26.119Z,51.04
2018-09-26T11:06:26.110Z,51.25
2018-09-26T11:07:26.100Z,51.04
2018-09-26T11:08:26.256Z,51.04
2018-09-26T11:09:26.167Z,51.04
2018-09-26T11:10:26.156Z,51.34
2018-09-26T11:11:26.057Z,51.34
2018-09-26T11:12:26.067Z,51.14
2018-09-26T11:13:26.029Z,51.25
2018-09-26T11:14:26.020Z,51.25
2018-09-26T11:15:26.148Z,51.34
2018-09-26T11:16:26.009Z,51.14
2018-09-26T11:17:26.006Z,51.04
2018-09-26T11:18:25.997Z,51.34
2018-09-26T11:19:25.961Z,51.34
2018-09-26T11:20:25.981Z,51.04
2018-09-26T11:21:26.073Z,51.34
2018-09-26T11:22:26.071Z,51.25
2018-09-26T11:23:25.916Z,51.04
2018-09-26T11:24:25.928Z,50.94
2018-09-26T11:25:25.897Z,51.25
2018-09-26T11:26:26.027Z,51.04
2018-09-26T11:27:25.877Z,51.25
2018-09-26T11:28:26.062Z,51.04
2018-09-26T11:29:25.851Z,51.44
2018-09-26T11:30:25.840Z,51.34
2018-09-26T11:31:25.853Z,51.04
2018-09-26T11:32:25.965Z,51.34
2018-09-26T11:33:25.888Z,51.04
2018-09-26T11:34:25.887Z,51.04
2018-09-26T11:35:25.826Z,51.04
2018-09-26T11:36:25.799Z,51.04
2018-09-26T11:37:25.766Z,51.04
2018-09-26T11:38:25.816Z,50.74
2018-09-26T11:39:25.759Z,51.04
2018-09-26T11:40:25.733Z,51.44
2018-09-26T11:41:25.784Z,51.34
2018-09-26T11:42:25.712Z,51.44
2018-09-26T11:43:25.696Z,51.04
2018-09-26T11:44:25.888Z,51.44
2018-09-26T11:45:25.675Z,51.14
2018-09-26T11:46:25.739Z,51.04
2018-09-26T11:47:25.850Z,51.34
2018-09-26T11:48:25.672Z,51.04
2018-09-26T11:49:25.634Z,51.44
2018-09-26T11:50:25.647Z,51.04
2018-09-26T11:51:25.636Z,51.44
2018-09-26T11:52:25.697Z,51.04
2018-09-26T11:53:25.582Z,50.74
2018-09-26T11:54:25.570Z,51.04
2018-09-26T11:55:25.592Z,51.07
2018-09-26T11:56:25.619Z,50.84
2018-09-26T11:57:25.563Z,51.04
2018-09-26T11:58:25.664Z,50.84
2018-09-26T11:59:25.515Z,51.04
2018-09-26T12:00:25.503Z,50.84
2018-09-26T12:01:25.533Z,51.04
2018-09-26T12:02:25.737Z,50.94
2018-09-26T12:03:25.469Z,50.94
2018-09-26T12:04:25.552Z,51.04
2018-09-26T12:05:25.452Z,51.14
2018-09-26T12:06:25.472Z,50.84
2018-09-26T12:07:25.468Z,51.04
2018-09-26T12:08:25.490Z,50.74
2018-09-26T12:09:25.402Z,51.44
2018-09-26T12:10:25.484Z,51.04
2018-09-26T12:11:25.415Z,51.04
2018-09-26T12:12:25.425Z,51.44
2018-09-26T12:13:25.366Z,50.74
2018-09-26T12:14:25.368Z,51.04
2018-09-26T12:15:25.334Z,51.07
2018-09-26T12:16:25.442Z,51.04
2018-09-26T12:17:25.314Z,50.87
2018-09-26T12:18:25.381Z,50.74
2018-09-26T12:19:25.344Z,50.76
2018-09-26T12:20:25.815Z,51.14
2018-09-26T12:21:30.538Z,51.34
2018-09-26T12:22:25.860Z,51.04
2018-09-26T12:23:26.868Z,50.64
2018-09-26T12:24:36.027Z,51.44
2018-09-26T12:25:25.427Z,51.34
2018-09-26T12:26:25.284Z,51.07
2018-09-26T12:27:25.211Z,51.04
2018-09-26T12:28:25.243Z,50.87
2018-09-26T12:29:25.178Z,50.94
2018-09-26T12:30:25.288Z,51.34
2018-09-26T12:31:25.156Z,51.64
2018-09-26T12:32:25.145Z,50.64
2018-09-26T12:33:25.135Z,51.37
2018-09-26T12:34:25.157Z,50.74
2018-09-26T12:35:25.134Z,51.04
2018-09-26T12:36:25.171Z,50.94
2018-09-26T12:37:25.089Z,51.14
2018-09-26T12:38:25.077Z,51.54
2018-09-26T12:39:25.088Z,50.64
2018-09-26T12:40:25.155Z,50.74
2018-09-26T12:41:25.069Z,51.14
2018-09-26T12:42:25.074Z,51.04
2018-09-26T12:43:25.045Z,51.04
2018-09-26T12:44:25.010Z,50.74
2018-09-26T12:45:25.014Z,51.04
2018-09-26T12:46:25.157Z,51.44
2018-09-26T12:47:25.086Z,51.04
2018-09-26T12:48:25.399Z,51.04
2018-09-26T12:49:24.989Z,51.44
2018-09-26T12:50:24.967Z,51.34
2018-09-26T12:51:24.934Z,51.46
2018-09-26T12:52:24.992Z,51.04